sensor_id;sensor_type;location;lat;lon;timestamp;P1;durP1;ratioP1;P2;durP2;ratioP2
4519;SDS011;2272;49.226;8.108;2023-04-19T00:01:56;15.93;;;9.50;;
4519;SDS011;2272;49.226;8.108;2023-04-19T00:04:32;13.17;;;9.03;;
4519;SDS011;2272;49.226;8.108;2023-04-19T00:07:04;11.03;;;9.13;;
4519;SDS011;2272;49.226;8.108;2023-04-19T00:09:31;12.83;;;8.07;;
4519;SDS011;2272;49.226;8.108;2023-04-19T00:12:05;11.00;;;7.97;;
4519;SDS011;2272;49.226;8.108;2023-04-19T00:14:39;12.63;;;8.20;;
4519;SDS011;2272;49.226;8.108;2023-04-19T00:17:10;12.80;;;8.97;;
4519;SDS011;2272;49.226;8.108;2023-04-19T00:19:58;11.23;;;8.70;;
4519;SDS011;2272;49.226;8.108;2023-04-19T00:22:32;9.93;;;8.20;;
4519;SDS011;2272;49.226;8.108;2023-04-19T00:25:09;10.53;;;8.57;;
4519;SDS011;2272;49.226;8.108;2023-04-19T00:27:51;12.83;;;8.17;;
4519;SDS011;2272;49.226;8.108;2023-04-19T00:30:22;11.00;;;8.80;;
4519;SDS011;2272;49.226;8.108;2023-04-19T00:32:49;10.03;;;8.40;;
4519;SDS011;2272;49.226;8.108;2023-04-19T00:35:22;10.10;;;7.93;;
4519;SDS011;2272;49.226;8.108;2023-04-19T00:37:51;11.50;;;9.37;;
4519;SDS011;2272;49.226;8.108;2023-04-19T00:40:21;8.80;;;7.83;;
4519;SDS011;2272;49.226;8.108;2023-04-19T00:43:01;10.53;;;8.10;;
4519;SDS011;2272;49.226;8.108;2023-04-19T00:45:34;13.27;;;8.80;;
4519;SDS011;2272;49.226;8.108;2023-04-19T00:48:04;15.13;;;9.40;;
4519;SDS011;2272;49.226;8.108;2023-04-19T00:50:34;11.13;;;8.33;;
4519;SDS011;2272;49.226;8.108;2023-04-19T00:53:12;10.90;;;8.73;;
4519;SDS011;2272;49.226;8.108;2023-04-19T00:55:49;12.60;;;9.50;;
4519;SDS011;2272;49.226;8.108;2023-04-19T00:58:42;10.20;;;8.47;;
4519;SDS011;2272;49.226;8.108;2023-04-19T01:01:11;14.93;;;9.20;;
4519;SDS011;2272;49.226;8.108;2023-04-19T01:03:43;12.93;;;10.53;;
4519;SDS011;2272;49.226;8.108;2023-04-19T01:06:35;12.33;;;9.17;;
4519;SDS011;2272;49.226;8.108;2023-04-19T01:09:07;12.00;;;8.03;;
4519;SDS011;2272;49.226;8.108;2023-04-19T01:11:34;14.00;;;8.37;;
4519;SDS011;2272;49.226;8.108;2023-04-19T01:14:18;10.80;;;8.07;;
4519;SDS011;2272;49.226;8.108;2023-04-19T01:16:45;12.10;;;8.67;;
4519;SDS011;2272;49.226;8.108;2023-04-19T01:19:14;11.50;;;8.30;;
4519;SDS011;2272;49.226;8.108;2023-04-19T01:21:47;13.10;;;8.80;;
4519;SDS011;2272;49.226;8.108;2023-04-19T01:24:15;14.80;;;10.10;;
4519;SDS011;2272;49.226;8.108;2023-04-19T01:26:42;10.33;;;9.27;;
4519;SDS011;2272;49.226;8.108;2023-04-19T01:29:11;11.10;;;8.83;;
4519;SDS011;2272;49.226;8.108;2023-04-19T01:31:52;11.73;;;8.30;;
4519;SDS011;2272;49.226;8.108;2023-04-19T01:34:31;11.50;;;9.03;;
4519;SDS011;2272;49.226;8.108;2023-04-19T01:37:07;15.70;;;9.03;;
4519;SDS011;2272;49.226;8.108;2023-04-19T01:39:39;12.90;;;10.00;;
4519;SDS011;2272;49.226;8.108;2023-04-19T01:42:16;12.37;;;8.50;;
4519;SDS011;2272;49.226;8.108;2023-04-19T01:44:51;13.50;;;8.93;;
4519;SDS011;2272;49.226;8.108;2023-04-19T01:47:22;14.93;;;9.57;;
4519;SDS011;2272;49.226;8.108;2023-04-19T01:49:52;10.90;;;9.60;;
4519;SDS011;2272;49.226;8.108;2023-04-19T01:52:21;12.23;;;8.77;;
4519;SDS011;2272;49.226;8.108;2023-04-19T01:55:10;9.20;;;8.20;;
4519;SDS011;2272;49.226;8.108;2023-04-19T01:57:37;12.83;;;9.00;;
4519;SDS011;2272;49.226;8.108;2023-04-19T02:00:06;13.27;;;9.10;;
4519;SDS011;2272;49.226;8.108;2023-04-19T02:02:51;16.87;;;9.57;;
4519;SDS011;2272;49.226;8.108;2023-04-19T02:05:26;12.00;;;9.03;;
4519;SDS011;2272;49.226;8.108;2023-04-19T02:07:53;12.23;;;9.53;;
4519;SDS011;2272;49.226;8.108;2023-04-19T02:10:26;19.07;;;8.77;;
4519;SDS011;2272;49.226;8.108;2023-04-19T02:12:53;12.23;;;9.10;;
4519;SDS011;2272;49.226;8.108;2023-04-19T02:15:20;16.00;;;9.67;;
4519;SDS011;2272;49.226;8.108;2023-04-19T02:17:47;14.10;;;9.77;;
4519;SDS011;2272;49.226;8.108;2023-04-19T02:20:33;12.40;;;8.47;;
4519;SDS011;2272;49.226;8.108;2023-04-19T02:23:06;10.77;;;7.93;;
4519;SDS011;2272;49.226;8.108;2023-04-19T02:25:54;15.47;;;10.43;;
4519;SDS011;2272;49.226;8.108;2023-04-19T02:28:25;22.73;;;10.50;;
4519;SDS011;2272;49.226;8.108;2023-04-19T02:30:52;15.67;;;9.97;;
4519;SDS011;2272;49.226;8.108;2023-04-19T02:33:25;14.97;;;10.53;;
4519;SDS011;2272;49.226;8.108;2023-04-19T02:36:01;15.50;;;9.70;;
4519;SDS011;2272;49.226;8.108;2023-04-19T02:38:30;18.20;;;9.63;;
4519;SDS011;2272;49.226;8.108;2023-04-19T02:41:13;15.10;;;9.53;;
4519;SDS011;2272;49.226;8.108;2023-04-19T02:44:06;10.00;;;8.97;;
4519;SDS011;2272;49.226;8.108;2023-04-19T02:46:48;11.20;;;9.80;;
4519;SDS011;2272;49.226;8.108;2023-04-19T02:51:23;13.40;;;9.57;;
4519;SDS011;2272;49.226;8.108;2023-04-19T02:52:37;13.50;;;9.60;;
4519;SDS011;2272;49.226;8.108;2023-04-19T02:58:21;12.07;;;8.53;;
4519;SDS011;2272;49.226;8.108;2023-04-19T03:00:48;15.87;;;10.23;;
4519;SDS011;2272;49.226;8.108;2023-04-19T03:03:47;13.57;;;8.80;;
4519;SDS011;2272;49.226;8.108;2023-04-19T03:06:20;14.77;;;10.17;;
4519;SDS011;2272;49.226;8.108;2023-04-19T03:08:51;13.37;;;9.47;;
4519;SDS011;2272;49.226;8.108;2023-04-19T03:11:22;10.87;;;8.70;;
4519;SDS011;2272;49.226;8.108;2023-04-19T03:14:09;11.70;;;9.20;;
4519;SDS011;2272;49.226;8.108;2023-04-19T03:16:40;14.70;;;9.80;;
4519;SDS011;2272;49.226;8.108;2023-04-19T03:19:20;9.77;;;8.13;;
4519;SDS011;2272;49.226;8.108;2023-04-19T03:21:56;12.93;;;9.57;;
4519;SDS011;2272;49.226;8.108;2023-04-19T03:24:41;10.90;;;8.67;;
4519;SDS011;2272;49.226;8.108;2023-04-19T03:27:39;12.77;;;9.70;;
4519;SDS011;2272;49.226;8.108;2023-04-19T03:30:13;11.40;;;8.70;;
4519;SDS011;2272;49.226;8.108;2023-04-19T03:32:46;14.60;;;10.00;;
4519;SDS011;2272;49.226;8.108;2023-04-19T03:35:14;10.13;;;8.83;;
4519;SDS011;2272;49.226;8.108;2023-04-19T03:37:43;14.40;;;9.40;;
4519;SDS011;2272;49.226;8.108;2023-04-19T03:40:13;11.53;;;9.03;;
4519;SDS011;2272;49.226;8.108;2023-04-19T03:42:40;10.13;;;9.03;;
4519;SDS011;2272;49.226;8.108;2023-04-19T03:45:07;14.43;;;10.33;;
4519;SDS011;2272;49.226;8.108;2023-04-19T03:47:36;9.70;;;8.30;;
4519;SDS011;2272;49.226;8.108;2023-04-19T03:50:03;12.40;;;9.43;;
4519;SDS011;2272;49.226;8.108;2023-04-19T03:52:31;18.07;;;9.57;;
4519;SDS011;2272;49.226;8.108;2023-04-19T03:54:58;19.67;;;9.90;;
4519;SDS011;2272;49.226;8.108;2023-04-19T03:57:25;10.70;;;9.50;;
4519;SDS011;2272;49.226;8.108;2023-04-19T03:59:52;11.80;;;8.90;;
4519;SDS011;2272;49.226;8.108;2023-04-19T04:02:19;13.50;;;9.40;;
4519;SDS011;2272;49.226;8.108;2023-04-19T04:04:48;15.43;;;9.60;;
4519;SDS011;2272;49.226;8.108;2023-04-19T04:07:19;8.73;;;7.93;;
4519;SDS011;2272;49.226;8.108;2023-04-19T04:09:47;10.63;;;8.80;;
4519;SDS011;2272;49.226;8.108;2023-04-19T04:12:14;20.03;;;9.67;;
4519;SDS011;2272;49.226;8.108;2023-04-19T04:14:41;11.10;;;7.60;;
4519;SDS011;2272;49.226;8.108;2023-04-19T04:17:10;10.60;;;8.13;;
4519;SDS011;2272;49.226;8.108;2023-04-19T04:19:43;10.37;;;9.20;;
4519;SDS011;2272;49.226;8.108;2023-04-19T04:22:11;15.40;;;9.20;;
4519;SDS011;2272;49.226;8.108;2023-04-19T04:24:41;22.30;;;10.00;;
4519;SDS011;2272;49.226;8.108;2023-04-19T04:27:08;10.60;;;8.20;;
4519;SDS011;2272;49.226;8.108;2023-04-19T04:29:36;8.93;;;8.03;;
4519;SDS011;2272;49.226;8.108;2023-04-19T04:32:03;10.30;;;8.53;;
4519;SDS011;2272;49.226;8.108;2023-04-19T04:34:35;11.93;;;9.20;;
4519;SDS011;2272;49.226;8.108;2023-04-19T04:37:02;14.40;;;8.77;;
4519;SDS011;2272;49.226;8.108;2023-04-19T04:39:31;11.30;;;8.07;;
4519;SDS011;2272;49.226;8.108;2023-04-19T04:42:03;10.47;;;8.93;;
4519;SDS011;2272;49.226;8.108;2023-04-19T04:44:35;12.57;;;8.37;;
4519;SDS011;2272;49.226;8.108;2023-04-19T04:47:04;10.83;;;8.40;;
4519;SDS011;2272;49.226;8.108;2023-04-19T04:49:40;12.43;;;8.60;;
4519;SDS011;2272;49.226;8.108;2023-04-19T04:52:26;10.70;;;8.90;;
4519;SDS011;2272;49.226;8.108;2023-04-19T04:54:55;16.13;;;8.90;;
4519;SDS011;2272;49.226;8.108;2023-04-19T04:57:21;13.00;;;8.90;;
4519;SDS011;2272;49.226;8.108;2023-04-19T04:59:48;10.00;;;8.23;;
4519;SDS011;2272;49.226;8.108;2023-04-19T05:02:21;10.53;;;8.07;;
4519;SDS011;2272;49.226;8.108;2023-04-19T05:04:49;17.07;;;9.13;;
4519;SDS011;2272;49.226;8.108;2023-04-19T05:07:21;11.10;;;8.93;;
4519;SDS011;2272;49.226;8.108;2023-04-19T05:09:48;13.20;;;10.03;;
4519;SDS011;2272;49.226;8.108;2023-04-19T05:12:16;14.40;;;9.80;;
4519;SDS011;2272;49.226;8.108;2023-04-19T05:14:43;13.53;;;8.93;;
4519;SDS011;2272;49.226;8.108;2023-04-19T05:17:09;10.70;;;8.80;;
4519;SDS011;2272;49.226;8.108;2023-04-19T05:19:36;15.77;;;9.53;;
4519;SDS011;2272;49.226;8.108;2023-04-19T05:22:03;14.90;;;9.33;;
4519;SDS011;2272;49.226;8.108;2023-04-19T05:24:32;14.50;;;9.10;;
4519;SDS011;2272;49.226;8.108;2023-04-19T05:27:01;10.77;;;7.40;;
4519;SDS011;2272;49.226;8.108;2023-04-19T05:29:30;8.93;;;7.67;;
4519;SDS011;2272;49.226;8.108;2023-04-19T05:31:57;10.10;;;8.20;;
4519;SDS011;2272;49.226;8.108;2023-04-19T05:34:27;9.03;;;7.77;;
4519;SDS011;2272;49.226;8.108;2023-04-19T05:36:55;14.83;;;9.83;;
4519;SDS011;2272;49.226;8.108;2023-04-19T05:39:22;10.97;;;8.53;;
4519;SDS011;2272;49.226;8.108;2023-04-19T05:41:49;11.07;;;8.37;;
4519;SDS011;2272;49.226;8.108;2023-04-19T05:44:16;9.63;;;7.50;;
4519;SDS011;2272;49.226;8.108;2023-04-19T05:46:44;9.77;;;8.40;;
4519;SDS011;2272;49.226;8.108;2023-04-19T05:49:10;14.87;;;8.23;;
4519;SDS011;2272;49.226;8.108;2023-04-19T05:51:37;10.30;;;8.10;;
4519;SDS011;2272;49.226;8.108;2023-04-19T05:54:04;15.67;;;8.20;;
4519;SDS011;2272;49.226;8.108;2023-04-19T05:56:38;8.03;;;6.80;;
4519;SDS011;2272;49.226;8.108;2023-04-19T05:59:08;13.60;;;8.03;;
4519;SDS011;2272;49.226;8.108;2023-04-19T06:01:35;9.63;;;7.80;;
4519;SDS011;2272;49.226;8.108;2023-04-19T06:04:05;11.63;;;8.60;;
4519;SDS011;2272;49.226;8.108;2023-04-19T06:06:32;9.53;;;7.70;;
4519;SDS011;2272;49.226;8.108;2023-04-19T06:08:59;10.53;;;8.60;;
4519;SDS011;2272;49.226;8.108;2023-04-19T06:11:30;9.00;;;7.40;;
4519;SDS011;2272;49.226;8.108;2023-04-19T06:14:09;10.10;;;7.97;;
4519;SDS011;2272;49.226;8.108;2023-04-19T06:16:42;13.33;;;8.37;;
4519;SDS011;2272;49.226;8.108;2023-04-19T06:19:13;9.43;;;7.30;;
4519;SDS011;2272;49.226;8.108;2023-04-19T06:21:43;7.87;;;6.83;;
4519;SDS011;2272;49.226;8.108;2023-04-19T06:24:11;12.20;;;7.93;;
4519;SDS011;2272;49.226;8.108;2023-04-19T06:26:38;9.63;;;8.20;;
4519;SDS011;2272;49.226;8.108;2023-04-19T06:29:05;9.47;;;7.50;;
4519;SDS011;2272;49.226;8.108;2023-04-19T06:31:32;13.67;;;8.70;;
4519;SDS011;2272;49.226;8.108;2023-04-19T06:33:59;12.53;;;8.70;;
4519;SDS011;2272;49.226;8.108;2023-04-19T06:36:27;12.00;;;8.70;;
4519;SDS011;2272;49.226;8.108;2023-04-19T06:38:54;12.90;;;8.30;;
4519;SDS011;2272;49.226;8.108;2023-04-19T06:41:21;11.17;;;8.77;;
4519;SDS011;2272;49.226;8.108;2023-04-19T06:43:48;14.67;;;9.17;;
4519;SDS011;2272;49.226;8.108;2023-04-19T06:46:15;9.80;;;8.17;;
4519;SDS011;2272;49.226;8.108;2023-04-19T06:48:42;12.37;;;8.67;;
4519;SDS011;2272;49.226;8.108;2023-04-19T06:51:09;12.47;;;8.87;;
4519;SDS011;2272;49.226;8.108;2023-04-19T06:53:37;14.17;;;9.27;;
4519;SDS011;2272;49.226;8.108;2023-04-19T06:56:04;10.73;;;8.17;;
4519;SDS011;2272;49.226;8.108;2023-04-19T06:58:32;13.83;;;9.10;;
4519;SDS011;2272;49.226;8.108;2023-04-19T07:00:58;12.83;;;8.97;;
4519;SDS011;2272;49.226;8.108;2023-04-19T07:03:26;12.40;;;7.73;;
4519;SDS011;2272;49.226;8.108;2023-04-19T07:05:53;8.33;;;7.47;;
4519;SDS011;2272;49.226;8.108;2023-04-19T07:08:21;9.13;;;7.60;;
4519;SDS011;2272;49.226;8.108;2023-04-19T07:10:50;9.80;;;8.37;;
4519;SDS011;2272;49.226;8.108;2023-04-19T07:13:17;14.87;;;9.33;;
4519;SDS011;2272;49.226;8.108;2023-04-19T07:15:44;15.77;;;9.87;;
4519;SDS011;2272;49.226;8.108;2023-04-19T07:18:11;12.97;;;9.00;;
4519;SDS011;2272;49.226;8.108;2023-04-19T07:20:40;10.40;;;9.30;;
4519;SDS011;2272;49.226;8.108;2023-04-19T07:23:09;11.80;;;9.47;;
4519;SDS011;2272;49.226;8.108;2023-04-19T07:25:35;10.97;;;9.27;;
4519;SDS011;2272;49.226;8.108;2023-04-19T07:28:04;10.70;;;8.40;;
4519;SDS011;2272;49.226;8.108;2023-04-19T07:30:31;10.07;;;8.23;;
4519;SDS011;2272;49.226;8.108;2023-04-19T07:32:57;21.73;;;8.97;;
4519;SDS011;2272;49.226;8.108;2023-04-19T07:35:24;11.00;;;9.63;;
4519;SDS011;2272;49.226;8.108;2023-04-19T07:37:51;12.87;;;8.60;;
4519;SDS011;2272;49.226;8.108;2023-04-19T07:40:18;12.40;;;8.50;;
4519;SDS011;2272;49.226;8.108;2023-04-19T07:42:45;9.53;;;7.33;;
4519;SDS011;2272;49.226;8.108;2023-04-19T07:45:13;14.90;;;8.23;;
4519;SDS011;2272;49.226;8.108;2023-04-19T07:47:40;13.93;;;8.90;;
4519;SDS011;2272;49.226;8.108;2023-04-19T07:50:07;11.77;;;8.93;;
4519;SDS011;2272;49.226;8.108;2023-04-19T07:52:34;12.90;;;9.73;;
4519;SDS011;2272;49.226;8.108;2023-04-19T07:55:01;10.87;;;8.77;;
4519;SDS011;2272;49.226;8.108;2023-04-19T07:57:28;8.90;;;8.00;;
4519;SDS011;2272;49.226;8.108;2023-04-19T07:59:55;10.43;;;9.00;;
4519;SDS011;2272;49.226;8.108;2023-04-19T08:02:25;10.03;;;8.50;;
4519;SDS011;2272;49.226;8.108;2023-04-19T08:04:52;12.60;;;8.70;;
4519;SDS011;2272;49.226;8.108;2023-04-19T08:07:20;9.97;;;8.53;;
4519;SDS011;2272;49.226;8.108;2023-04-19T08:09:47;13.33;;;9.00;;
4519;SDS011;2272;49.226;8.108;2023-04-19T08:12:14;10.87;;;9.00;;
4519;SDS011;2272;49.226;8.108;2023-04-19T08:14:42;12.40;;;9.07;;
4519;SDS011;2272;49.226;8.108;2023-04-19T08:17:10;17.80;;;9.70;;
4519;SDS011;2272;49.226;8.108;2023-04-19T08:19:38;10.83;;;8.83;;
4519;SDS011;2272;49.226;8.108;2023-04-19T08:22:05;11.43;;;9.53;;
4519;SDS011;2272;49.226;8.108;2023-04-19T08:24:32;15.33;;;9.80;;
4519;SDS011;2272;49.226;8.108;2023-04-19T08:26:59;13.40;;;9.73;;
4519;SDS011;2272;49.226;8.108;2023-04-19T08:29:26;11.93;;;9.17;;
4519;SDS011;2272;49.226;8.108;2023-04-19T08:31:52;13.10;;;9.70;;
4519;SDS011;2272;49.226;8.108;2023-04-19T08:34:19;10.80;;;9.03;;
4519;SDS011;2272;49.226;8.108;2023-04-19T08:36:47;13.07;;;10.00;;
4519;SDS011;2272;49.226;8.108;2023-04-19T08:39:14;13.57;;;9.93;;
4519;SDS011;2272;49.226;8.108;2023-04-19T08:41:41;17.13;;;9.57;;
4519;SDS011;2272;49.226;8.108;2023-04-19T08:44:09;12.03;;;10.17;;
4519;SDS011;2272;49.226;8.108;2023-04-19T08:46:36;11.23;;;8.73;;
4519;SDS011;2272;49.226;8.108;2023-04-19T08:49:03;20.87;;;10.40;;
4519;SDS011;2272;49.226;8.108;2023-04-19T08:51:31;11.90;;;10.60;;
4519;SDS011;2272;49.226;8.108;2023-04-19T08:54:00;16.17;;;10.23;;
4519;SDS011;2272;49.226;8.108;2023-04-19T08:56:31;19.13;;;10.40;;
4519;SDS011;2272;49.226;8.108;2023-04-19T08:58:58;13.80;;;9.47;;
4519;SDS011;2272;49.226;8.108;2023-04-19T09:01:25;12.40;;;10.00;;
4519;SDS011;2272;49.226;8.108;2023-04-19T09:03:52;11.40;;;9.43;;
4519;SDS011;2272;49.226;8.108;2023-04-19T09:06:18;11.03;;;9.53;;
4519;SDS011;2272;49.226;8.108;2023-04-19T09:08:45;13.23;;;11.37;;
4519;SDS011;2272;49.226;8.108;2023-04-19T09:11:13;13.07;;;9.40;;
4519;SDS011;2272;49.226;8.108;2023-04-19T09:13:40;16.13;;;10.67;;
4519;SDS011;2272;49.226;8.108;2023-04-19T09:16:21;15.90;;;11.97;;
4519;SDS011;2272;49.226;8.108;2023-04-19T09:18:52;12.93;;;10.50;;
4519;SDS011;2272;49.226;8.108;2023-04-19T09:21:26;15.43;;;11.00;;
4519;SDS011;2272;49.226;8.108;2023-04-19T09:23:53;14.27;;;9.77;;
4519;SDS011;2272;49.226;8.108;2023-04-19T09:26:21;12.00;;;10.37;;
4519;SDS011;2272;49.226;8.108;2023-04-19T09:28:54;11.63;;;9.77;;
4519;SDS011;2272;49.226;8.108;2023-04-19T09:31:22;17.70;;;10.27;;
4519;SDS011;2272;49.226;8.108;2023-04-19T09:33:49;12.77;;;9.47;;
4519;SDS011;2272;49.226;8.108;2023-04-19T09:36:25;13.60;;;10.53;;
4519;SDS011;2272;49.226;8.108;2023-04-19T09:38:53;16.17;;;11.13;;
4519;SDS011;2272;49.226;8.108;2023-04-19T09:41:21;16.13;;;9.80;;
4519;SDS011;2272;49.226;8.108;2023-04-19T09:43:48;10.17;;;9.17;;
4519;SDS011;2272;49.226;8.108;2023-04-19T09:46:28;11.30;;;9.40;;
4519;SDS011;2272;49.226;8.108;2023-04-19T09:49:09;10.87;;;9.27;;
4519;SDS011;2272;49.226;8.108;2023-04-19T09:51:41;13.57;;;9.07;;
4519;SDS011;2272;49.226;8.108;2023-04-19T09:54:09;12.20;;;10.10;;
4519;SDS011;2272;49.226;8.108;2023-04-19T09:56:38;13.33;;;9.77;;
4519;SDS011;2272;49.226;8.108;2023-04-19T09:59:05;11.70;;;9.17;;
4519;SDS011;2272;49.226;8.108;2023-04-19T10:01:34;10.50;;;9.50;;
4519;SDS011;2272;49.226;8.108;2023-04-19T10:04:03;16.07;;;10.93;;
4519;SDS011;2272;49.226;8.108;2023-04-19T10:06:31;19.13;;;10.37;;
4519;SDS011;2272;49.226;8.108;2023-04-19T10:09:00;15.80;;;8.53;;
4519;SDS011;2272;49.226;8.108;2023-04-19T10:11:30;17.70;;;10.37;;
4519;SDS011;2272;49.226;8.108;2023-04-19T10:14:04;14.97;;;10.83;;
4519;SDS011;2272;49.226;8.108;2023-04-19T10:16:32;14.20;;;10.80;;
4519;SDS011;2272;49.226;8.108;2023-04-19T10:18:59;12.00;;;10.70;;
4519;SDS011;2272;49.226;8.108;2023-04-19T10:21:28;12.80;;;9.87;;
4519;SDS011;2272;49.226;8.108;2023-04-19T10:23:57;15.67;;;10.10;;
4519;SDS011;2272;49.226;8.108;2023-04-19T10:26:27;19.33;;;10.87;;
4519;SDS011;2272;49.226;8.108;2023-04-19T10:28:54;15.60;;;10.17;;
4519;SDS011;2272;49.226;8.108;2023-04-19T10:31:25;14.80;;;10.90;;
4519;SDS011;2272;49.226;8.108;2023-04-19T10:33:57;12.67;;;9.07;;
4519;SDS011;2272;49.226;8.108;2023-04-19T10:36:25;10.90;;;9.63;;
4519;SDS011;2272;49.226;8.108;2023-04-19T10:38:55;10.73;;;9.60;;
4519;SDS011;2272;49.226;8.108;2023-04-19T10:41:22;10.50;;;8.83;;
4519;SDS011;2272;49.226;8.108;2023-04-19T10:46:38;11.40;;;9.50;;
4519;SDS011;2272;49.226;8.108;2023-04-19T10:49:08;15.47;;;10.70;;
4519;SDS011;2272;49.226;8.108;2023-04-19T10:51:37;10.83;;;8.90;;
4519;SDS011;2272;49.226;8.108;2023-04-19T10:54:07;12.67;;;10.43;;
4519;SDS011;2272;49.226;8.108;2023-04-19T10:56:57;17.57;;;12.53;;
4519;SDS011;2272;49.226;8.108;2023-04-19T10:59:28;15.43;;;11.40;;
4519;SDS011;2272;49.226;8.108;2023-04-19T11:01:57;13.90;;;10.97;;
4519;SDS011;2272;49.226;8.108;2023-04-19T11:07:39;20.57;;;11.43;;
4519;SDS011;2272;49.226;8.108;2023-04-19T11:10:11;13.60;;;10.23;;
4519;SDS011;2272;49.226;8.108;2023-04-19T11:12:44;12.60;;;10.50;;
4519;SDS011;2272;49.226;8.108;2023-04-19T11:15:15;15.53;;;10.30;;
4519;SDS011;2272;49.226;8.108;2023-04-19T11:17:51;13.23;;;9.90;;
4519;SDS011;2272;49.226;8.108;2023-04-19T11:20:20;14.10;;;10.30;;
4519;SDS011;2272;49.226;8.108;2023-04-19T11:22:49;12.70;;;10.43;;
4519;SDS011;2272;49.226;8.108;2023-04-19T11:25:16;11.37;;;10.13;;
4519;SDS011;2272;49.226;8.108;2023-04-19T11:27:45;14.40;;;9.90;;
4519;SDS011;2272;49.226;8.108;2023-04-19T11:30:13;14.93;;;11.90;;
4519;SDS011;2272;49.226;8.108;2023-04-19T11:32:44;15.90;;;11.20;;
4519;SDS011;2272;49.226;8.108;2023-04-19T11:35:19;14.87;;;10.23;;
4519;SDS011;2272;49.226;8.108;2023-04-19T11:37:46;14.80;;;10.83;;
4519;SDS011;2272;49.226;8.108;2023-04-19T11:40:13;11.47;;;9.20;;
4519;SDS011;2272;49.226;8.108;2023-04-19T11:42:41;16.87;;;10.83;;
4519;SDS011;2272;49.226;8.108;2023-04-19T11:45:08;14.63;;;10.30;;
4519;SDS011;2272;49.226;8.108;2023-04-19T11:47:45;15.13;;;10.90;;
4519;SDS011;2272;49.226;8.108;2023-04-19T11:50:33;13.40;;;10.23;;
4519;SDS011;2272;49.226;8.108;2023-04-19T11:53:11;10.77;;;9.53;;
4519;SDS011;2272;49.226;8.108;2023-04-19T11:55:44;15.13;;;10.17;;
4519;SDS011;2272;49.226;8.108;2023-04-19T11:58:22;20.30;;;10.57;;
4519;SDS011;2272;49.226;8.108;2023-04-19T12:00:53;13.90;;;10.57;;
4519;SDS011;2272;49.226;8.108;2023-04-19T12:03:22;9.13;;;8.13;;
4519;SDS011;2272;49.226;8.108;2023-04-19T12:05:54;12.77;;;8.80;;
4519;SDS011;2272;49.226;8.108;2023-04-19T12:08:32;8.17;;;7.37;;
4519;SDS011;2272;49.226;8.108;2023-04-19T12:11:00;10.53;;;9.10;;
4519;SDS011;2272;49.226;8.108;2023-04-19T12:13:28;11.30;;;8.63;;
4519;SDS011;2272;49.226;8.108;2023-04-19T12:15:56;9.53;;;8.53;;
4519;SDS011;2272;49.226;8.108;2023-04-19T12:18:23;12.93;;;8.83;;
4519;SDS011;2272;49.226;8.108;2023-04-19T12:20:50;9.83;;;8.83;;
4519;SDS011;2272;49.226;8.108;2023-04-19T12:23:19;8.27;;;7.30;;
4519;SDS011;2272;49.226;8.108;2023-04-19T12:25:46;11.73;;;8.00;;
4519;SDS011;2272;49.226;8.108;2023-04-19T12:28:14;11.80;;;9.20;;
4519;SDS011;2272;49.226;8.108;2023-04-19T12:30:41;16.40;;;8.90;;
4519;SDS011;2272;49.226;8.108;2023-04-19T12:33:08;11.27;;;8.13;;
4519;SDS011;2272;49.226;8.108;2023-04-19T12:35:35;15.87;;;8.27;;
4519;SDS011;2272;49.226;8.108;2023-04-19T12:38:05;7.97;;;6.97;;
4519;SDS011;2272;49.226;8.108;2023-04-19T12:40:35;8.13;;;6.83;;
4519;SDS011;2272;49.226;8.108;2023-04-19T12:43:02;10.20;;;8.00;;
4519;SDS011;2272;49.226;8.108;2023-04-19T12:45:31;8.33;;;7.53;;
4519;SDS011;2272;49.226;8.108;2023-04-19T12:47:57;10.40;;;6.77;;
4519;SDS011;2272;49.226;8.108;2023-04-19T12:50:24;7.10;;;6.13;;
4519;SDS011;2272;49.226;8.108;2023-04-19T12:52:51;7.30;;;6.23;;
4519;SDS011;2272;49.226;8.108;2023-04-19T12:55:18;7.03;;;6.30;;
4519;SDS011;2272;49.226;8.108;2023-04-19T12:57:46;6.57;;;5.80;;
4519;SDS011;2272;49.226;8.108;2023-04-19T13:00:13;7.60;;;5.63;;
4519;SDS011;2272;49.226;8.108;2023-04-19T13:02:41;8.07;;;5.80;;
4519;SDS011;2272;49.226;8.108;2023-04-19T13:05:08;7.80;;;6.30;;
4519;SDS011;2272;49.226;8.108;2023-04-19T13:07:36;7.30;;;6.40;;
4519;SDS011;2272;49.226;8.108;2023-04-19T13:10:03;6.57;;;5.80;;
4519;SDS011;2272;49.226;8.108;2023-04-19T13:12:31;7.13;;;6.43;;
4519;SDS011;2272;49.226;8.108;2023-04-19T13:14:59;7.30;;;6.60;;
4519;SDS011;2272;49.226;8.108;2023-04-19T13:17:26;6.90;;;6.30;;
4519;SDS011;2272;49.226;8.108;2023-04-19T13:19:53;9.70;;;6.20;;
4519;SDS011;2272;49.226;8.108;2023-04-19T13:22:20;6.43;;;5.80;;
4519;SDS011;2272;49.226;8.108;2023-04-19T13:24:47;19.40;;;5.27;;
4519;SDS011;2272;49.226;8.108;2023-04-19T13:27:14;6.23;;;5.50;;
4519;SDS011;2272;49.226;8.108;2023-04-19T13:29:41;9.23;;;5.47;;
4519;SDS011;2272;49.226;8.108;2023-04-19T13:32:09;8.50;;;4.83;;
4519;SDS011;2272;49.226;8.108;2023-04-19T13:34:37;5.40;;;4.90;;
4519;SDS011;2272;49.226;8.108;2023-04-19T13:37:04;4.93;;;4.50;;
4519;SDS011;2272;49.226;8.108;2023-04-19T13:39:31;4.10;;;3.77;;
4519;SDS011;2272;49.226;8.108;2023-04-19T13:41:58;5.00;;;4.60;;
4519;SDS011;2272;49.226;8.108;2023-04-19T13:44:26;11.80;;;4.73;;
4519;SDS011;2272;49.226;8.108;2023-04-19T13:46:54;4.50;;;4.10;;
4519;SDS011;2272;49.226;8.108;2023-04-19T13:49:22;6.20;;;4.17;;
4519;SDS011;2272;49.226;8.108;2023-04-19T13:51:49;5.30;;;4.77;;
4519;SDS011;2272;49.226;8.108;2023-04-19T13:54:16;6.70;;;5.00;;
4519;SDS011;2272;49.226;8.108;2023-04-19T13:56:44;7.20;;;4.33;;
4519;SDS011;2272;49.226;8.108;2023-04-19T13:59:11;5.23;;;4.30;;
4519;SDS011;2272;49.226;8.108;2023-04-19T14:01:37;6.43;;;4.30;;
4519;SDS011;2272;49.226;8.108;2023-04-19T14:04:04;4.87;;;4.40;;
4519;SDS011;2272;49.226;8.108;2023-04-19T14:06:32;10.40;;;4.90;;
4519;SDS011;2272;49.226;8.108;2023-04-19T14:08:59;5.77;;;4.87;;
4519;SDS011;2272;49.226;8.108;2023-04-19T14:11:26;5.40;;;4.90;;
4519;SDS011;2272;49.226;8.108;2023-04-19T14:13:53;5.13;;;4.20;;
4519;SDS011;2272;49.226;8.108;2023-04-19T14:16:19;5.40;;;4.70;;
4519;SDS011;2272;49.226;8.108;2023-04-19T14:18:53;5.50;;;5.00;;
4519;SDS011;2272;49.226;8.108;2023-04-19T14:21:20;5.20;;;4.70;;
4519;SDS011;2272;49.226;8.108;2023-04-19T14:23:49;8.37;;;5.20;;
4519;SDS011;2272;49.226;8.108;2023-04-19T14:26:15;10.57;;;5.63;;
4519;SDS011;2272;49.226;8.108;2023-04-19T14:28:42;4.63;;;4.23;;
4519;SDS011;2272;49.226;8.108;2023-04-19T14:31:09;6.63;;;4.80;;
4519;SDS011;2272;49.226;8.108;2023-04-19T14:33:36;4.13;;;3.83;;
4519;SDS011;2272;49.226;8.108;2023-04-19T14:36:02;4.67;;;3.67;;
4519;SDS011;2272;49.226;8.108;2023-04-19T14:38:29;5.20;;;4.33;;
4519;SDS011;2272;49.226;8.108;2023-04-19T14:40:57;10.83;;;3.93;;
4519;SDS011;2272;49.226;8.108;2023-04-19T14:43:24;9.70;;;4.40;;
4519;SDS011;2272;49.226;8.108;2023-04-19T14:45:51;3.73;;;3.43;;
4519;SDS011;2272;49.226;8.108;2023-04-19T14:48:18;3.90;;;3.60;;
4519;SDS011;2272;49.226;8.108;2023-04-19T14:50:45;3.80;;;3.50;;
4519;SDS011;2272;49.226;8.108;2023-04-19T14:53:13;18.87;;;4.00;;
4519;SDS011;2272;49.226;8.108;2023-04-19T14:55:40;8.77;;;3.77;;
4519;SDS011;2272;49.226;8.108;2023-04-19T14:58:08;4.27;;;3.17;;
4519;SDS011;2272;49.226;8.108;2023-04-19T15:00:35;3.97;;;3.50;;
4519;SDS011;2272;49.226;8.108;2023-04-19T15:03:02;5.37;;;3.00;;
4519;SDS011;2272;49.226;8.108;2023-04-19T15:05:29;3.90;;;2.83;;
4519;SDS011;2272;49.226;8.108;2023-04-19T15:07:59;12.23;;;2.70;;
4519;SDS011;2272;49.226;8.108;2023-04-19T15:10:26;5.73;;;2.50;;
4519;SDS011;2272;49.226;8.108;2023-04-19T15:12:53;5.60;;;2.30;;
4519;SDS011;2272;49.226;8.108;2023-04-19T15:15:25;8.63;;;2.60;;
4519;SDS011;2272;49.226;8.108;2023-04-19T15:17:52;14.67;;;2.60;;
4519;SDS011;2272;49.226;8.108;2023-04-19T15:20:22;2.37;;;1.90;;
4519;SDS011;2272;49.226;8.108;2023-04-19T15:22:49;3.00;;;2.80;;
4519;SDS011;2272;49.226;8.108;2023-04-19T15:25:16;2.70;;;2.40;;
4519;SDS011;2272;49.226;8.108;2023-04-19T15:27:46;4.40;;;3.00;;
4519;SDS011;2272;49.226;8.108;2023-04-19T15:30:13;11.73;;;2.30;;